createdAt,value
2022-08-16T00:02:24.230Z,20.78
2022-08-16T00:04:51.117Z,20.76
2022-08-16T00:07:17.972Z,20.73
2022-08-16T00:09:45.215Z,20.70
2022-08-16T00:12:12.454Z,20.68
2022-08-16T00:14:44.883Z,20.65
2022-08-16T00:17:18.683Z,20.61
2022-08-16T00:19:46.788Z,20.59
2022-08-16T00:22:15.623Z,20.57
2022-08-16T00:24:46.761Z,20.55
2022-08-16T00:27:14.515Z,20.50
2022-08-16T00:29:41.464Z,20.44
2022-08-16T00:32:11.091Z,20.39
2022-08-16T00:34:43.392Z,20.33
2022-08-16T00:37:24.079Z,20.27
2022-08-16T00:39:57.138Z,20.21
2022-08-16T00:42:30.227Z,20.15
2022-08-16T00:45:09.677Z,20.11
2022-08-16T00:47:49.491Z,20.06
2022-08-16T00:50:21.748Z,20.01
2022-08-16T00:53:04.278Z,19.96
2022-08-16T00:55:37.787Z,19.91
2022-08-16T00:58:13.174Z,19.86
2022-08-16T01:00:45.656Z,19.82
2022-08-16T01:03:30.410Z,19.80
2022-08-16T01:06:39.964Z,19.77
2022-08-16T01:08:52.182Z,19.73
2022-08-16T01:11:19.407Z,19.69
2022-08-16T01:13:50.488Z,19.66
2022-08-16T01:16:23.643Z,19.62
2022-08-16T01:19:29.298Z,19.57
2022-08-16T01:22:48.000Z,19.53
2022-08-16T01:25:22.765Z,19.48
2022-08-16T01:28:04.319Z,19.45
2022-08-16T01:30:34.635Z,19.41
2022-08-16T01:33:15.341Z,19.38
2022-08-16T01:36:11.924Z,19.35
2022-08-16T01:38:47.084Z,19.31
2022-08-16T01:41:22.986Z,19.29
2022-08-16T01:43:53.955Z,19.26
2022-08-16T01:46:39.731Z,19.24
2022-08-16T01:49:18.969Z,19.20
2022-08-16T01:51:51.447Z,19.17
2022-08-16T01:54:30.509Z,19.15
2022-08-16T01:56:58.460Z,19.13
2022-08-16T01:59:26.205Z,19.12
2022-08-16T02:02:00.098Z,19.10
2022-08-16T02:04:49.648Z,19.09
2022-08-16T02:07:18.683Z,19.07
2022-08-16T02:09:58.658Z,19.04
2022-08-16T02:12:55.746Z,19.02
2022-08-16T02:15:26.000Z,18.98
2022-08-16T02:17:57.964Z,18.96
2022-08-16T02:20:27.906Z,18.95
2022-08-16T02:22:59.573Z,18.93
2022-08-16T02:25:52.516Z,18.91
2022-08-16T02:28:17.247Z,18.88
2022-08-16T02:30:50.505Z,18.86
2022-08-16T02:33:18.408Z,18.84
2022-08-16T02:35:49.957Z,18.82
2022-08-16T02:38:26.480Z,18.80
2022-08-16T02:40:54.380Z,18.78
2022-08-16T02:43:26.772Z,18.77
2022-08-16T02:45:56.334Z,18.75
2022-08-16T02:48:29.629Z,18.73
2022-08-16T02:51:06.236Z,18.73
2022-08-16T02:53:44.637Z,18.72
2022-08-16T02:56:15.148Z,18.75
2022-08-16T02:58:44.354Z,18.78
2022-08-16T03:01:24.083Z,18.80
2022-08-16T03:04:29.102Z,18.83
2022-08-16T03:06:43.165Z,18.81
2022-08-16T03:09:20.138Z,18.78
2022-08-16T03:11:51.205Z,18.72
2022-08-16T03:14:20.831Z,18.68
2022-08-16T03:16:59.354Z,18.63
2022-08-16T03:19:48.055Z,18.59
2022-08-16T03:22:29.147Z,18.56
2022-08-16T03:25:07.766Z,18.52
2022-08-16T03:27:36.308Z,18.51
2022-08-16T03:30:15.276Z,18.47
2022-08-16T03:32:49.673Z,18.45
2022-08-16T03:35:22.505Z,18.42
2022-08-16T03:38:02.451Z,18.39
2022-08-16T03:40:36.032Z,18.38
2022-08-16T03:43:20.436Z,18.36
2022-08-16T03:45:53.630Z,18.34
2022-08-16T03:48:36.399Z,18.33
2022-08-16T03:51:12.926Z,18.32
2022-08-16T03:54:01.026Z,18.29
2022-08-16T03:56:30.586Z,18.27
2022-08-16T03:58:59.690Z,18.26
2022-08-16T04:01:31.172Z,18.25
2022-08-16T04:03:58.334Z,18.24
2022-08-16T04:06:26.622Z,18.22
2022-08-16T04:08:53.925Z,18.23
2022-08-16T04:11:23.701Z,18.22
2022-08-16T04:14:00.892Z,18.24
2022-08-16T04:16:41.550Z,18.26
2022-08-16T04:19:26.752Z,18.27
2022-08-16T04:22:00.812Z,18.28
2022-08-16T04:24:31.492Z,18.28
2022-08-16T04:26:59.118Z,18.29
2022-08-16T04:29:27.823Z,18.30
2022-08-16T04:32:11.192Z,18.30
2022-08-16T04:34:40.878Z,18.32
2022-08-16T04:37:09.088Z,18.31
2022-08-16T04:39:46.760Z,18.33
2022-08-16T04:42:26.328Z,18.35
2022-08-16T04:44:58.379Z,18.36
2022-08-16T04:47:33.372Z,18.38
2022-08-16T04:50:19.088Z,18.39
2022-08-16T04:53:12.098Z,18.43
2022-08-16T04:55:44.337Z,18.45
2022-08-16T04:58:43.561Z,18.48
2022-08-16T05:01:01.356Z,18.51
2022-08-16T05:03:30.833Z,18.55
2022-08-16T05:05:59.968Z,18.61
2022-08-16T05:08:32.872Z,18.66
2022-08-16T05:11:17.566Z,18.71
2022-08-16T05:13:47.572Z,18.76
2022-08-16T05:16:27.497Z,18.83
2022-08-16T05:19:06.266Z,18.88
2022-08-16T05:21:40.309Z,18.95
2022-08-16T05:24:10.079Z,19.00
2022-08-16T05:26:43.237Z,19.06
2022-08-16T05:29:16.849Z,19.12
2022-08-16T05:32:01.380Z,19.19
2022-08-16T05:34:28.724Z,19.25
2022-08-16T05:36:57.379Z,19.30
2022-08-16T05:39:30.987Z,19.36
2022-08-16T05:42:00.104Z,19.41
2022-08-16T05:44:26.897Z,19.46
2022-08-16T05:47:00.202Z,19.52
2022-08-16T05:49:38.919Z,19.59
2022-08-16T05:52:10.708Z,19.65
2022-08-16T05:54:46.768Z,19.72
2022-08-16T05:57:17.244Z,19.78
2022-08-16T05:59:45.532Z,19.85
2022-08-16T06:02:14.855Z,19.92
2022-08-16T06:04:45.140Z,20.00
2022-08-16T06:07:24.871Z,20.07
2022-08-16T06:10:32.424Z,20.15
2022-08-16T06:13:01.653Z,20.22
2022-08-16T06:15:28.231Z,20.28
2022-08-16T06:17:59.132Z,20.35
2022-08-16T06:20:35.243Z,20.43
2022-08-16T06:23:11.821Z,20.50
2022-08-16T06:25:56.342Z,20.57
2022-08-16T06:28:35.758Z,20.64
2022-08-16T06:31:06.837Z,20.72
2022-08-16T06:33:41.325Z,20.79
2022-08-16T06:36:10.343Z,20.86
2022-08-16T06:38:38.652Z,20.94
2022-08-16T06:41:29.601Z,21.01
2022-08-16T06:44:20.715Z,21.09
2022-08-16T06:46:50.531Z,21.17
2022-08-16T06:49:18.816Z,21.23
2022-08-16T06:51:46.234Z,21.27
2022-08-16T06:54:16.332Z,21.33
2022-08-16T06:56:43.138Z,21.39
2022-08-16T06:59:13.575Z,21.45
2022-08-16T07:01:50.795Z,21.54
2022-08-16T07:04:32.324Z,21.59
2022-08-16T07:07:05.745Z,21.65
2022-08-16T07:09:32.715Z,21.73
2022-08-16T07:12:03.246Z,21.78
2022-08-16T07:14:33.257Z,21.84
2022-08-16T07:17:01.359Z,21.91
2022-08-16T07:20:01.712Z,21.95
2022-08-16T07:22:38.047Z,22.01
2022-08-16T07:25:20.316Z,22.08
2022-08-16T07:27:49.841Z,22.13
2022-08-16T07:30:38.252Z,22.16
2022-08-16T07:33:10.090Z,22.26
2022-08-16T07:35:44.220Z,22.34
2022-08-16T07:38:19.919Z,22.40
2022-08-16T07:41:01.191Z,22.48
2022-08-16T07:43:30.371Z,22.52
2022-08-16T07:46:01.582Z,22.56
2022-08-16T07:48:31.031Z,22.63
2022-08-16T07:50:59.778Z,22.71
2022-08-16T07:53:30.996Z,22.76
2022-08-16T07:56:00.199Z,22.81
2022-08-16T07:58:36.293Z,22.88
2022-08-16T08:01:10.538Z,22.93
2022-08-16T08:03:48.721Z,22.98
2022-08-16T08:06:25.325Z,23.04
2022-08-16T08:08:57.547Z,23.08
2022-08-16T08:11:28.107Z,23.15
2022-08-16T08:14:00.814Z,23.19
2022-08-16T08:16:33.028Z,23.26
2022-08-16T08:19:02.664Z,23.30
2022-08-16T08:21:58.805Z,23.34
2022-08-16T08:24:22.436Z,23.37
2022-08-16T08:26:59.244Z,23.47
2022-08-16T08:29:36.815Z,23.51
2022-08-16T08:33:00.495Z,23.58
2022-08-16T08:35:03.150Z,23.61
2022-08-16T08:37:55.506Z,23.64
2022-08-16T08:40:20.553Z,23.72
2022-08-16T08:42:52.204Z,23.77
2022-08-16T08:45:48.789Z,23.83
2022-08-16T08:48:33.771Z,23.88
2022-08-16T08:51:09.192Z,23.93
2022-08-16T08:53:46.392Z,23.95
2022-08-16T08:56:30.432Z,24.00
2022-08-16T08:59:13.156Z,24.03
2022-08-16T09:01:56.958Z,24.10
2022-08-16T09:04:27.643Z,24.13
2022-08-16T09:06:55.876Z,24.17
2022-08-16T09:09:25.240Z,24.21
2022-08-16T09:12:06.571Z,24.27
2022-08-16T09:14:54.559Z,24.32
2022-08-16T09:17:54.971Z,24.36
2022-08-16T09:20:14.350Z,24.43
2022-08-16T09:22:44.073Z,24.51
2022-08-16T09:25:23.047Z,24.60
2022-08-16T09:27:57.290Z,24.65
2022-08-16T09:30:34.115Z,24.68
2022-08-16T09:33:06.835Z,24.72
2022-08-16T09:35:38.855Z,24.78
2022-08-16T09:38:08.291Z,24.83
2022-08-16T09:40:42.782Z,24.84
2022-08-16T09:43:21.098Z,24.87
2022-08-16T09:45:57.983Z,24.95
2022-08-16T09:48:37.192Z,24.95
2022-08-16T09:51:12.889Z,25.01
2022-08-16T09:53:39.752Z,25.07
2022-08-16T09:56:28.952Z,25.14
2022-08-16T09:59:05.429Z,25.20
2022-08-16T10:01:36.581Z,25.24
2022-08-16T10:04:14.080Z,25.29
2022-08-16T10:06:53.414Z,25.36
2022-08-16T10:09:20.245Z,25.38
2022-08-16T10:12:10.925Z,25.43
2022-08-16T10:14:40.701Z,25.50
2022-08-16T10:17:12.773Z,25.56
2022-08-16T10:19:39.664Z,25.64
2022-08-16T10:22:06.217Z,25.70
2022-08-16T10:24:33.664Z,25.79
2022-08-16T10:27:26.709Z,25.96
2022-08-16T10:30:01.058Z,26.01
2022-08-16T10:32:33.929Z,25.98
2022-08-16T10:35:03.346Z,26.00
2022-08-16T10:37:32.581Z,26.11
2022-08-16T10:40:28.719Z,26.29
2022-08-16T10:42:54.516Z,26.48
2022-08-16T10:45:21.201Z,26.60
2022-08-16T10:48:02.022Z,26.67
2022-08-16T10:50:32.653Z,26.76
2022-08-16T10:53:05.040Z,26.83
2022-08-16T10:55:43.703Z,26.96
2022-08-16T10:58:13.032Z,27.13
2022-08-16T11:00:40.837Z,27.24
2022-08-16T11:03:42.329Z,27.42
2022-08-16T11:06:06.324Z,27.58
2022-08-16T11:08:39.674Z,27.71
2022-08-16T11:11:11.788Z,27.70
2022-08-16T11:14:11.223Z,27.72
2022-08-16T11:19:20.232Z,27.98
2022-08-16T11:24:43.456Z,28.19
2022-08-16T11:27:23.927Z,28.23
2022-08-16T11:29:56.517Z,28.24
2022-08-16T11:32:31.240Z,28.15
2022-08-16T11:35:14.099Z,27.99
2022-08-16T11:40:40.757Z,27.77
2022-08-16T11:43:10.910Z,27.69
2022-08-16T11:45:38.407Z,27.61
2022-08-16T11:48:05.845Z,27.69
2022-08-16T11:50:33.833Z,27.75
2022-08-16T11:53:05.395Z,27.78
2022-08-16T11:55:38.108Z,27.84
2022-08-16T11:58:06.767Z,27.87
2022-08-16T12:00:51.433Z,27.89
2022-08-16T12:03:21.832Z,27.89
2022-08-16T12:06:00.346Z,27.93
2022-08-16T12:08:27.347Z,27.96
2022-08-16T12:10:55.257Z,28.09
2022-08-16T12:13:26.921Z,28.18
2022-08-16T12:15:53.714Z,28.14
2022-08-16T12:18:21.619Z,28.07
2022-08-16T12:20:48.635Z,28.05
2022-08-16T12:23:15.264Z,28.15
2022-08-16T12:25:44.246Z,28.28
2022-08-16T12:28:11.133Z,28.36
2022-08-16T12:30:40.940Z,28.40
2022-08-16T12:33:10.530Z,28.45
2022-08-16T12:35:39.396Z,28.49
2022-08-16T12:38:08.727Z,28.51
2022-08-16T12:40:55.660Z,28.41
2022-08-16T12:43:25.332Z,28.46
2022-08-16T12:45:55.246Z,28.55
2022-08-16T12:48:44.570Z,28.65
2022-08-16T12:51:19.689Z,28.60
2022-08-16T12:53:53.489Z,28.62
2022-08-16T12:56:26.111Z,28.64
2022-08-16T12:58:56.068Z,28.74
2022-08-16T13:01:28.679Z,28.59
2022-08-16T13:04:12.274Z,28.46
2022-08-16T13:06:44.659Z,28.47
2022-08-16T13:09:23.603Z,28.48
2022-08-16T13:12:00.093Z,28.41
2022-08-16T13:14:34.267Z,28.41
2022-08-16T13:17:06.490Z,28.40
2022-08-16T13:20:03.456Z,28.40
2022-08-16T13:22:22.117Z,28.43
2022-08-16T13:24:50.553Z,28.49
2022-08-16T13:27:17.923Z,28.55
2022-08-16T13:29:45.125Z,28.61
2022-08-16T13:32:39.405Z,28.65
2022-08-16T13:35:05.449Z,28.72
2022-08-16T13:37:32.543Z,28.81
2022-08-16T13:40:05.483Z,28.82
2022-08-16T13:42:32.495Z,28.84
2022-08-16T13:45:08.963Z,28.90
2022-08-16T13:47:39.982Z,29.00
2022-08-16T13:50:09.683Z,29.10
2022-08-16T13:52:50.597Z,29.13
2022-08-16T13:55:18.158Z,29.18
2022-08-16T13:58:26.718Z,29.19
2022-08-16T14:00:31.657Z,29.18
2022-08-16T14:02:59.185Z,29.29
2022-08-16T14:05:26.552Z,29.39
2022-08-16T14:07:53.993Z,29.50
2022-08-16T14:10:21.113Z,29.61
2022-08-16T14:12:47.927Z,29.63
2022-08-16T14:15:15.982Z,29.61
2022-08-16T14:18:15.758Z,29.56
2022-08-16T14:20:37.693Z,29.50
2022-08-16T14:23:06.141Z,29.51
2022-08-16T14:25:32.906Z,29.47
2022-08-16T14:27:59.506Z,29.49
2022-08-16T14:30:26.374Z,29.53
2022-08-16T14:32:54.024Z,29.58
2022-08-16T14:35:36.641Z,29.58
2022-08-16T14:38:13.540Z,29.57
2022-08-16T14:40:47.199Z,29.56
2022-08-16T14:43:19.186Z,29.59
2022-08-16T14:45:47.032Z,29.69
2022-08-16T14:48:25.111Z,29.77
2022-08-16T14:50:54.220Z,29.77
2022-08-16T14:53:23.502Z,29.74
2022-08-16T14:55:50.016Z,29.70
2022-08-16T14:58:19.678Z,29.76
2022-08-16T15:00:47.848Z,29.80
2022-08-16T15:03:18.730Z,29.87
2022-08-16T15:05:48.285Z,29.96
2022-08-16T15:08:17.105Z,30.05
2022-08-16T15:10:47.180Z,30.09
2022-08-16T15:13:15.044Z,30.15
2022-08-16T15:15:43.376Z,30.24
2022-08-16T15:18:12.111Z,30.23
2022-08-16T15:20:39.517Z,30.12
2022-08-16T15:23:08.598Z,30.08
2022-08-16T15:25:41.438Z,30.09
2022-08-16T15:28:23.942Z,30.10
2022-08-16T15:31:01.003Z,30.14
2022-08-16T15:33:32.763Z,30.18
2022-08-16T15:36:00.237Z,30.27
2022-08-16T15:38:54.717Z,30.39
2022-08-16T15:41:33.513Z,30.83
2022-08-16T15:44:05.101Z,31.71
2022-08-16T15:46:56.406Z,33.04
2022-08-16T15:49:23.636Z,34.22
2022-08-16T15:51:52.012Z,35.17
2022-08-16T15:54:30.716Z,35.97
2022-08-16T15:57:10.861Z,36.61
2022-08-16T15:59:49.078Z,37.19
2022-08-16T16:02:29.810Z,37.68
2022-08-16T16:05:04.294Z,38.29
2022-08-16T16:07:32.230Z,39.19
2022-08-16T16:10:01.957Z,40.13
2022-08-16T16:12:51.274Z,41.10
2022-08-16T16:15:17.704Z,41.84
2022-08-16T16:17:46.851Z,42.07
2022-08-16T16:20:24.555Z,42.41
2022-08-16T16:22:56.656Z,42.54
2022-08-16T16:25:24.925Z,42.62
2022-08-16T16:27:55.515Z,42.74
2022-08-16T16:30:37.508Z,42.57
2022-08-16T16:33:21.014Z,42.25
2022-08-16T16:35:57.420Z,42.30
2022-08-16T16:38:29.015Z,42.29
2022-08-16T16:40:57.743Z,42.50
2022-08-16T16:43:25.917Z,42.28
2022-08-16T16:45:58.331Z,41.48
2022-08-16T16:48:35.075Z,41.37
2022-08-16T16:51:09.149Z,41.08
2022-08-16T16:53:42.090Z,40.97
2022-08-16T16:56:19.623Z,41.24
2022-08-16T16:58:57.101Z,41.30
2022-08-16T17:01:41.265Z,40.95
2022-08-16T17:04:23.839Z,40.51
2022-08-16T17:06:58.152Z,40.33
2022-08-16T17:09:24.811Z,40.31
2022-08-16T17:11:54.893Z,40.31
2022-08-16T17:14:32.654Z,40.26
2022-08-16T17:17:04.208Z,39.98
2022-08-16T17:19:31.659Z,39.72
2022-08-16T17:21:59.582Z,39.38
2022-08-16T17:24:31.995Z,38.74
2022-08-16T17:27:08.324Z,37.85
2022-08-16T17:29:46.095Z,37.18
2022-08-16T17:32:33.588Z,36.69
2022-08-16T17:35:10.914Z,36.09
2022-08-16T17:37:50.662Z,35.46
2022-08-16T17:40:25.846Z,34.90
2022-08-16T17:43:10.256Z,34.38
2022-08-16T17:45:39.152Z,33.97
2022-08-16T17:48:06.463Z,33.64
2022-08-16T17:50:33.228Z,33.32
2022-08-16T17:53:00.965Z,33.01
2022-08-16T17:55:33.822Z,32.71
2022-08-16T17:58:00.549Z,32.45
2022-08-16T18:00:29.276Z,32.18
2022-08-16T18:02:59.649Z,31.89
2022-08-16T18:05:28.470Z,31.64
2022-08-16T18:07:55.354Z,31.38
2022-08-16T18:10:32.651Z,31.20
2022-08-16T18:13:00.826Z,30.98
2022-08-16T18:15:27.901Z,30.77
2022-08-16T18:17:54.731Z,30.56
2022-08-16T18:20:42.150Z,30.37
2022-08-16T18:23:17.992Z,30.12
2022-08-16T18:25:50.649Z,29.91
2022-08-16T18:28:18.167Z,29.70
2022-08-16T18:30:50.934Z,29.49
2022-08-16T18:33:19.545Z,29.24
2022-08-16T18:35:46.060Z,29.02
2022-08-16T18:38:13.005Z,28.82
2022-08-16T18:40:39.957Z,28.65
2022-08-16T18:43:09.685Z,28.48
2022-08-16T18:45:39.885Z,28.32
2022-08-16T18:48:08.040Z,28.15
2022-08-16T18:50:59.471Z,27.98
2022-08-16T18:53:26.376Z,27.81
2022-08-16T18:55:57.157Z,27.66
2022-08-16T18:58:24.613Z,27.50
2022-08-16T19:00:56.294Z,27.38
2022-08-16T19:03:30.017Z,27.23
2022-08-16T19:05:59.760Z,27.08
2022-08-16T19:08:26.292Z,26.95
2022-08-16T19:10:52.969Z,26.82
2022-08-16T19:13:25.800Z,26.70
2022-08-16T19:15:56.273Z,26.58
2022-08-16T19:18:23.244Z,26.47
2022-08-16T19:20:50.644Z,26.37
2022-08-16T19:23:21.438Z,26.27
2022-08-16T19:25:52.956Z,26.17
2022-08-16T19:28:49.281Z,26.07
2022-08-16T19:31:23.996Z,25.95
2022-08-16T19:33:55.364Z,25.84
2022-08-16T19:36:35.030Z,25.72
2022-08-16T19:39:09.196Z,25.61
2022-08-16T19:41:39.092Z,25.52
2022-08-16T19:44:06.994Z,25.42
2022-08-16T19:46:34.437Z,25.33
2022-08-16T19:49:01.222Z,25.26
2022-08-16T19:51:28.131Z,25.20
2022-08-16T19:53:54.673Z,25.14
2022-08-16T19:56:23.807Z,25.06
2022-08-16T19:59:16.995Z,24.97
2022-08-16T20:01:41.908Z,24.88
2022-08-16T20:04:12.278Z,24.81
2022-08-16T20:06:39.948Z,24.73
2022-08-16T20:09:07.075Z,24.64
2022-08-16T20:11:35.128Z,24.56
2022-08-16T20:14:02.313Z,24.50
2022-08-16T20:16:29.004Z,24.42
2022-08-16T20:18:55.551Z,24.38
2022-08-16T20:21:22.145Z,24.31
2022-08-16T20:23:48.827Z,24.25
2022-08-16T20:26:15.494Z,24.20
2022-08-16T20:28:53.833Z,24.11
2022-08-16T20:31:22.450Z,24.04
2022-08-16T20:33:49.746Z,23.99
2022-08-16T20:36:16.822Z,23.93
2022-08-16T20:38:46.720Z,23.88
2022-08-16T20:41:13.611Z,23.81
2022-08-16T20:43:40.309Z,23.77
2022-08-16T20:46:06.992Z,23.70
2022-08-16T20:48:33.551Z,23.65
2022-08-16T20:51:00.080Z,23.61
2022-08-16T20:53:26.665Z,23.57
2022-08-16T20:55:53.482Z,23.53
2022-08-16T20:58:20.159Z,23.48
2022-08-16T21:00:47.242Z,23.44
2022-08-16T21:03:14.349Z,23.37
2022-08-16T21:05:41.107Z,23.33
2022-08-16T21:08:28.741Z,23.29
2022-08-16T21:10:59.191Z,23.24
2022-08-16T21:13:25.899Z,23.19
2022-08-16T21:15:52.848Z,23.14
2022-08-16T21:18:19.578Z,23.10
2022-08-16T21:20:46.078Z,23.03
2022-08-16T21:23:13.149Z,22.97
2022-08-16T21:25:54.829Z,22.90
2022-08-16T21:28:40.689Z,22.83
2022-08-16T21:31:13.649Z,22.77
2022-08-16T21:33:41.179Z,22.72
2022-08-16T21:36:08.069Z,22.67
2022-08-16T21:38:35.012Z,22.63
2022-08-16T21:41:03.203Z,22.59
2022-08-16T21:43:32.881Z,22.55
2022-08-16T21:46:01.630Z,22.50
2022-08-16T21:48:34.943Z,22.43
2022-08-16T21:51:08.405Z,22.36
2022-08-16T21:53:35.903Z,22.32
2022-08-16T21:56:03.312Z,22.28
2022-08-16T21:58:31.224Z,22.22
2022-08-16T22:00:58.637Z,22.19
2022-08-16T22:03:25.220Z,22.15
2022-08-16T22:06:12.620Z,22.10
2022-08-16T22:08:49.324Z,22.05
2022-08-16T22:11:17.461Z,22.02
2022-08-16T22:13:51.292Z,21.98
2022-08-16T22:16:32.815Z,21.95
2022-08-16T22:19:00.808Z,21.92
2022-08-16T22:21:27.494Z,21.89
2022-08-16T22:23:57.429Z,21.84
2022-08-16T22:26:31.784Z,21.79
2022-08-16T22:29:11.141Z,21.76
2022-08-16T22:31:39.820Z,21.71
2022-08-16T22:34:06.587Z,21.66
2022-08-16T22:36:34.173Z,21.62
2022-08-16T22:39:04.204Z,21.60
2022-08-16T22:41:32.909Z,21.56
2022-08-16T22:44:00.865Z,21.51
2022-08-16T22:46:27.712Z,21.49
2022-08-16T22:48:54.374Z,21.45
2022-08-16T22:51:23.088Z,21.43
2022-08-16T22:53:49.939Z,21.40
2022-08-16T22:56:17.482Z,21.37
2022-08-16T22:58:45.196Z,21.34
2022-08-16T23:01:13.450Z,21.32
2022-08-16T23:03:40.801Z,21.30
2022-08-16T23:06:08.431Z,21.25
2022-08-16T23:08:39.371Z,21.22
2022-08-16T23:11:15.187Z,21.20
2022-08-16T23:13:49.849Z,21.17
2022-08-16T23:16:29.198Z,21.15
2022-08-16T23:18:59.919Z,21.11
2022-08-16T23:21:26.649Z,21.07
2022-08-16T23:23:53.446Z,21.04
2022-08-16T23:26:46.134Z,21.00
2022-08-16T23:29:07.074Z,20.97
2022-08-16T23:31:47.687Z,20.94
2022-08-16T23:34:14.191Z,20.90
2022-08-16T23:36:40.715Z,20.87
2022-08-16T23:39:07.280Z,20.85
2022-08-16T23:41:34.915Z,20.81
2022-08-16T23:44:01.998Z,20.78
2022-08-16T23:46:49.333Z,20.76
2022-08-16T23:49:58.372Z,20.72
2022-08-16T23:52:10.183Z,20.68
2022-08-16T23:54:36.727Z,20.67
2022-08-16T23:57:03.673Z,20.64
2022-08-16T23:59:30.188Z,20.62
